WXM80 ListenWXM80 Stop

You find our weather info also at:

UK Metoffice

WeatherCloud

Weather Underground

Northeastern Weather Network

AWEKAS

Citizen Weather Observer Program (CWOP)

HAMweather, WeatherForYou, PWS Weather


Weather Underground History page Text

Daily Summary for August 24, 2017 Units:  English    Metric   Both
« Previous Day
Next Day »
Daily Weekly Monthly Yearly Custom
  High: Low: Average:
Temperature: 84.3 °F 60.8 °F 71.3 °F
Dew Point: 65.0 °F 55.4 °F 60.1 °F
Humidity: 96 % 38 % 71 %
Wind Speed: 5.2 mph 0.0 mph 1.2 mph
Wind Gust: 10.0 mph - -
Wind:- - SSW
Pressure: 29.92 in 29.82 in -
Precipitation: 0.00 in    
Historical Graphs
 
 
Tabular Data for August 24, 2017
Time Temperature Dew Point Pressure Wind Wind Speed Wind Gust Humidity Rainfall Rate (Hourly)
00:02 66.7 °F 61.4 °F 29.82 in Calm     83 % 0.00 in
00:07 66.4 °F 61.1 °F 29.82 in Calm     83 % 0.00 in
00:13 66.2 °F 60.9 °F 29.82 in Calm     83 % 0.00 in
00:18 66.0 °F 60.7 °F 29.82 in Calm     83 % 0.00 in
00:23 65.8 °F 60.8 °F 29.83 in Calm     84 % 0.00 in
00:28 65.7 °F 60.7 °F 29.82 in Calm     84 % 0.00 in
00:38 65.3 °F 60.7 °F 29.82 in Calm   1.2 mph 85 % 0.00 in
00:43 65.1 °F 60.8 °F 29.83 in Calm     86 % 0.00 in
00:48 64.9 °F 60.6 °F 29.83 in Calm     86 % 0.00 in
00:53 64.8 °F 60.5 °F 29.83 in Calm     86 % 0.00 in
00:58 64.6 °F 60.3 °F 29.83 in Calm     86 % 0.00 in
01:03 64.5 °F 60.2 °F 29.83 in Calm     86 % 0.00 in
01:08 64.3 °F 60.0 °F 29.83 in Calm     86 % 0.00 in
01:13 64.2 °F 60.2 °F 29.83 in Calm     87 % 0.00 in
01:18 64.1 °F 60.2 °F 29.83 in Calm     87 % 0.00 in
01:23 64.0 °F 60.1 °F 29.82 in Calm     87 % 0.00 in
01:28 63.8 °F 60.2 °F 29.82 in Calm     88 % 0.00 in
01:33 63.8 °F 60.2 °F 29.82 in Calm     88 % 0.00 in
01:38 63.6 °F 60.0 °F 29.82 in Calm     88 % 0.00 in
01:43 63.5 °F 59.9 °F 29.82 in Calm     88 % 0.00 in
01:49 63.3 °F 59.7 °F 29.82 in Calm     88 % 0.00 in
01:54 63.2 °F 59.9 °F 29.82 in Calm     89 % 0.00 in
01:59 63.1 °F 59.8 °F 29.82 in Calm     89 % 0.00 in
02:04 63.0 °F 59.7 °F 29.82 in Calm   1.2 mph 89 % 0.00 in
02:09 62.9 °F 59.6 °F 29.82 in Calm     89 % 0.00 in
02:14 62.8 °F 59.5 °F 29.82 in Calm     89 % 0.00 in
02:19 62.7 °F 59.7 °F 29.82 in Calm     90 % 0.00 in
02:24 62.6 °F 59.6 °F 29.82 in Calm     90 % 0.00 in
02:29 62.5 °F 59.5 °F 29.82 in Calm     90 % 0.00 in
02:34 62.4 °F 59.4 °F 29.82 in Calm     90 % 0.00 in
02:39 62.3 °F 59.3 °F 29.82 in Calm     90 % 0.00 in
02:44 62.2 °F 59.2 °F 29.82 in Calm     90 % 0.00 in
02:49 62.1 °F 59.1 °F 29.82 in Calm     90 % 0.00 in
02:54 62.1 °F 59.1 °F 29.82 in Calm     90 % 0.00 in
02:59 62.0 °F 59.0 °F 29.82 in Calm     90 % 0.00 in
03:04 61.9 °F 58.9 °F 29.82 in Calm     90 % 0.00 in
03:09 61.8 °F 58.8 °F 29.82 in Calm     90 % 0.00 in
03:14 61.7 °F 58.7 °F 29.83 in Calm     90 % 0.00 in
03:19 61.6 °F 58.6 °F 29.82 in Calm     90 % 0.00 in
03:24 61.6 °F 58.6 °F 29.82 in Calm     90 % 0.00 in
03:29 61.5 °F 58.8 °F 29.83 in Calm     91 % 0.00 in
03:34 61.4 °F 58.7 °F 29.82 in Calm     91 % 0.00 in
03:39 61.4 °F 58.7 °F 29.82 in WNW 0.1 mph 1.2 mph 91 % 0.00 in
03:44 61.3 °F 58.7 °F 29.82 in Calm     91 % 0.00 in
03:49 61.2 °F 58.6 °F 29.82 in Calm     91 % 0.00 in
03:55 61.2 °F 58.6 °F 29.82 in Calm     91 % 0.00 in
03:59 61.1 °F 58.5 °F 29.82 in Calm     91 % 0.00 in
04:05 61.1 °F 58.5 °F 29.83 in Calm     91 % 0.00 in
04:10 61.1 °F 58.8 °F 29.82 in Calm     92 % 0.00 in
04:15 61.0 °F 58.7 °F 29.83 in Calm     92 % 0.00 in
04:20 60.9 °F 58.6 °F 29.82 in Calm     92 % 0.00 in
04:25 60.9 °F 58.6 °F 29.83 in Calm     92 % 0.00 in
04:30 60.9 °F 58.6 °F 29.83 in Calm     92 % 0.00 in
04:35 60.8 °F 58.5 °F 29.83 in Calm     92 % 0.00 in
04:40 60.8 °F 58.5 °F 29.83 in Calm     92 % 0.00 in
04:45 60.8 °F 58.5 °F 29.83 in WNW 0.6 mph 1.2 mph 92 % 0.00 in
04:50 60.8 °F 58.8 °F 29.83 in WNW 1.7 mph 3.5 mph 93 % 0.00 in
04:55 60.8 °F 58.8 °F 29.83 in WNW 0.9 mph 2.0 mph 93 % 0.00 in
05:00 60.9 °F 59.2 °F 29.84 in WNW 0.7 mph 2.3 mph 94 % 0.00 in
05:05 61.1 °F 59.4 °F 29.84 in WNW 1.6 mph 3.5 mph 94 % 0.00 in
05:10 61.3 °F 59.9 °F 29.84 in WNW 0.1 mph 3.5 mph 95 % 0.00 in
05:15 61.6 °F 60.2 °F 29.84 in Calm     95 % 0.00 in
05:16 61.6 °F 60.2 °F 29.84 in Calm     95 % 0.00 in
05:21 61.8 °F 60.4 °F 29.84 in Calm     95 % 0.00 in
05:26 61.9 °F 60.5 °F 29.84 in Calm     95 % 0.00 in
05:27 61.9 °F 60.5 °F 29.84 in Calm     95 % 0.00 in
05:32 62.0 °F 60.6 °F 29.84 in Calm     95 % 0.00 in
05:37 62.0 °F 60.6 °F 29.84 in Calm     95 % 0.00 in
05:42 62.0 °F 60.6 °F 29.85 in Calm     95 % 0.00 in
05:47 62.0 °F 60.6 °F 29.85 in Calm     95 % 0.00 in
05:52 62.0 °F 60.6 °F 29.85 in Calm   1.2 mph 95 % 0.00 in
05:57 61.9 °F 60.5 °F 29.85 in Calm     95 % 0.00 in
06:02 61.9 °F 60.5 °F 29.85 in Calm     95 % 0.00 in
06:07 61.9 °F 60.5 °F 29.86 in Calm   1.2 mph 95 % 0.00 in
06:12 61.8 °F 60.4 °F 29.86 in Calm     95 % 0.00 in
06:17 61.8 °F 60.4 °F 29.86 in WNW 2.8 mph 4.0 mph 95 % 0.00 in
06:22 61.8 °F 60.4 °F 29.86 in WNW 0.1 mph   95 % 0.00 in
06:27 61.9 °F 60.5 °F 29.86 in Calm     95 % 0.00 in
06:32 62.0 °F 60.6 °F 29.86 in NNE 1.9 mph 4.0 mph 95 % 0.00 in
06:37 62.2 °F 60.8 °F 29.86 in NNE 0.2 mph 1.2 mph 95 % 0.00 in
06:41 62.2 °F 60.8 °F 29.87 in Calm     95 % 0.00 in
06:46 62.3 °F 61.1 °F 29.87 in Calm     96 % 0.00 in
06:51 62.4 °F 60.9 °F 29.87 in NW 0.7 mph 3.5 mph 95 % 0.00 in
07:02 62.5 °F 61.0 °F 29.87 in NNE 0.9 mph 4.6 mph 95 % 0.00 in
07:06 62.7 °F 61.2 °F 29.87 in North 1.6 mph 3.5 mph 95 % 0.00 in
07:11 62.9 °F 61.4 °F 29.87 in North 0.1 mph 3.5 mph 95 % 0.00 in
07:16 63.2 °F 61.7 °F 29.87 in NNE 2.5 mph 3.5 mph 95 % 0.00 in
07:21 63.4 °F 61.6 °F 29.87 in NNE 0.7 mph 3.5 mph 94 % 0.00 in
07:26 63.6 °F 61.8 °F 29.88 in NNE 0.1 mph 1.2 mph 94 % 0.00 in
07:31 63.8 °F 61.4 °F 29.88 in NNE 0.3 mph 2.0 mph 92 % 0.00 in
07:36 64.1 °F 61.4 °F 29.88 in NNE 3.3 mph 4.6 mph 91 % 0.00 in
07:41 64.5 °F 61.5 °F 29.89 in NNW 1.7 mph 4.6 mph 90 % 0.00 in
07:46 64.8 °F 61.5 °F 29.89 in NNW 1.2 mph 2.3 mph 89 % 0.00 in
07:51 65.1 °F 61.5 °F 29.89 in NNE 0.4 mph 2.3 mph 88 % 0.00 in
07:56 65.4 °F 61.8 °F 29.89 in North 2.2 mph 3.5 mph 88 % 0.00 in
08:01 65.6 °F 61.0 °F 29.89 in North 4.8 mph 6.0 mph 85 % 0.00 in
08:06 65.8 °F 60.8 °F 29.89 in NNE 1.3 mph 3.5 mph 84 % 0.00 in
08:11 65.9 °F 61.3 °F 29.89 in NNE 0.1 mph 1.2 mph 85 % 0.00 in
08:16 65.9 °F 61.3 °F 29.90 in NNE 0.1 mph 2.3 mph 85 % 0.00 in
08:21 66.0 °F 61.4 °F 29.90 in Calm     85 % 0.00 in
08:26 66.0 °F 61.4 °F 29.90 in NNW 0.2 mph 1.2 mph 85 % 0.00 in
08:31 66.1 °F 61.5 °F 29.90 in NNE 0.8 mph 3.5 mph 85 % 0.00 in
08:36 66.1 °F 61.1 °F 29.90 in North 2.5 mph 3.5 mph 84 % 0.00 in
08:41 66.2 °F 61.2 °F 29.89 in North 0.4 mph 3.5 mph 84 % 0.00 in
08:46 66.3 °F 61.3 °F 29.89 in NNE 2.2 mph 3.5 mph 84 % 0.00 in
08:51 66.4 °F 61.4 °F 29.89 in Calm   1.2 mph 84 % 0.00 in
08:56 66.5 °F 61.2 °F 29.89 in NNE 0.3 mph 1.2 mph 83 % 0.00 in
09:01 66.7 °F 61.4 °F 29.89 in NNE 0.5 mph 3.5 mph 83 % 0.00 in
09:06 66.8 °F 61.1 °F 29.89 in North 0.7 mph 3.5 mph 82 % 0.00 in
09:11 67.1 °F 61.1 °F 29.89 in NW 1.1 mph 2.3 mph 81 % 0.00 in
09:17 67.2 °F 61.2 °F 29.89 in NNE 1.0 mph 4.6 mph 81 % 0.00 in
09:22 67.5 °F 61.8 °F 29.89 in North 2.0 mph 4.6 mph 82 % 0.00 in
09:27 67.7 °F 61.7 °F 29.90 in WNW 0.3 mph 3.5 mph 81 % 0.00 in
09:32 67.9 °F 61.9 °F 29.90 in NW 1.1 mph 3.5 mph 81 % 0.00 in
09:37 68.2 °F 61.8 °F 29.90 in North 2.2 mph 4.0 mph 80 % 0.00 in
09:42 68.5 °F 61.7 °F 29.90 in NNE 2.5 mph 4.6 mph 79 % 0.00 in
09:47 69.0 °F 62.6 °F 29.90 in NW 0.7 mph 2.3 mph 80 % 0.00 in
09:52 69.7 °F 63.3 °F 29.90 in NNE 1.9 mph 4.6 mph 80 % 0.00 in
09:57 70.6 °F 63.0 °F 29.90 in NNE 3.4 mph 4.6 mph 77 % 0.00 in
10:02 71.4 °F 62.3 °F 29.90 in NNE 0.9 mph 3.5 mph 73 % 0.00 in
10:07 71.9 °F 62.8 °F 29.90 in NNE 1.5 mph 4.0 mph 73 % 0.00 in
10:12 72.2 °F 63.1 °F 29.90 in North 2.7 mph 4.6 mph 73 % 0.00 in
10:17 72.3 °F 62.4 °F 29.89 in North 2.7 mph 3.5 mph 71 % 0.00 in
10:22 72.3 °F 62.4 °F 29.90 in NNE 3.2 mph 4.6 mph 71 % 0.00 in
10:27 72.3 °F 62.0 °F 29.89 in NNW 3.7 mph 4.6 mph 70 % 0.00 in
10:32 72.4 °F 62.5 °F 29.89 in NE 2.3 mph 4.6 mph 71 % 0.00 in
10:37 72.8 °F 64.0 °F 29.89 in NNE 0.4 mph 1.2 mph 74 % 0.00 in
10:42 73.2 °F 62.8 °F 29.89 in NNE 4.0 mph 5.8 mph 70 % 0.00 in
10:47 73.8 °F 62.6 °F 29.89 in ENE 2.5 mph 8.1 mph 68 % 0.00 in
10:52 74.5 °F 64.1 °F 29.89 in North 4.8 mph 6.9 mph 70 % 0.00 in
10:57 75.2 °F 63.5 °F 29.89 in North 0.5 mph 3.5 mph 67 % 0.00 in
11:02 75.9 °F 63.3 °F 29.89 in NNE 2.2 mph 5.8 mph 65 % 0.00 in
11:07 76.5 °F 63.4 °F 29.90 in NNE 3.8 mph 5.8 mph 64 % 0.00 in
11:12 77.2 °F 63.6 °F 29.90 in NW 0.8 mph 3.5 mph 63 % 0.00 in
11:17 77.9 °F 64.7 °F 29.89 in North 1.3 mph 4.0 mph 64 % 0.00 in
11:22 78.5 °F 63.5 °F 29.89 in Calm   2.3 mph 60 % 0.00 in
11:27 79.1 °F 65.0 °F 29.89 in North 1.2 mph 4.0 mph 62 % 0.00 in
11:33 79.5 °F 64.4 °F 29.89 in NNE 4.0 mph 4.6 mph 60 % 0.00 in
11:38 79.9 °F 63.8 °F 29.89 in North 2.9 mph 4.6 mph 58 % 0.00 in
11:43 80.2 °F 64.1 °F 29.89 in WNW 1.4 mph 4.0 mph 58 % 0.00 in
11:48 80.5 °F 64.4 °F 29.89 in NNE 4.1 mph 4.6 mph 58 % 0.00 in
11:50 80.6 °F 63.5 °F 29.88 in North 1.0 mph 2.3 mph 56 % 0.00 in
11:55 80.9 °F 64.7 °F 29.88 in Calm   3.5 mph 58 % 0.00 in
12:00 81.3 °F 64.1 °F 29.88 in WNW 1.8 mph 3.5 mph 56 % 0.00 in
12:05 81.4 °F 62.6 °F 29.88 in North 3.7 mph 6.0 mph 53 % 0.00 in
12:10 81.7 °F 65.0 °F 29.88 in North 2.0 mph 6.0 mph 57 % 0.00 in
12:16 81.8 °F 64.1 °F 29.88 in NNE 3.0 mph 6.0 mph 55 % 0.00 in
12:21 82.0 °F 64.8 °F 29.88 in Calm   4.0 mph 56 % 0.00 in
12:25 82.3 °F 64.0 °F 29.88 in North 3.0 mph 6.0 mph 54 % 0.00 in
12:31 82.3 °F 64.0 °F 29.88 in NNE 5.0 mph 7.0 mph 54 % 0.00 in
12:36 82.3 °F 64.5 °F 29.88 in NNE 5.0 mph 7.0 mph 55 % 0.00 in
12:40 82.2 °F 64.4 °F 29.88 in NW 1.3 mph 5.8 mph 55 % 0.00 in
12:45 82.4 °F 64.6 °F 29.87 in NNW 2.4 mph 4.6 mph 55 % 0.00 in
12:50 82.5 °F 64.2 °F 29.87 in NW 0.6 mph 4.6 mph 54 % 0.00 in
12:55 82.7 °F 64.9 °F 29.87 in North 2.0 mph 6.0 mph 55 % 0.00 in
13:01 82.7 °F 63.8 °F 29.87 in NW 1.0 mph 3.5 mph 53 % 0.00 in
13:06 82.7 °F 64.4 °F 29.87 in NNW 1.0 mph 5.0 mph 54 % 0.00 in
13:10 82.9 °F 64.5 °F 29.87 in North 2.0 mph 4.0 mph 54 % 0.00 in
13:15 83.0 °F 62.4 °F 29.87 in NW 1.3 mph 5.8 mph 50 % 0.00 in
13:20 83.4 °F 63.4 °F 29.87 in NW 1.4 mph 3.5 mph 51 % 0.00 in
13:25 83.4 °F 62.8 °F 29.87 in West 4.8 mph 6.0 mph 50 % 0.00 in
13:30 83.5 °F 61.1 °F 29.87 in WNW 2.0 mph 6.0 mph 47 % 0.00 in
13:35 83.7 °F 63.1 °F 29.87 in NW 1.0 mph 4.0 mph 50 % 0.00 in
13:41 83.8 °F 62.0 °F 29.87 in NNW 1.0 mph 5.0 mph 48 % 0.00 in
13:45 83.9 °F 62.1 °F 29.87 in NW 1.0 mph 5.0 mph 48 % 0.00 in
13:50 84.2 °F 63.5 °F 29.86 in NNW 1.0 mph 4.0 mph 50 % 0.00 in
13:55 84.2 °F 63.0 °F 29.86 in North 2.0 mph 6.0 mph 49 % 0.00 in
14:01 84.1 °F 61.1 °F 29.86 in WSW 1.6 mph 2.3 mph 46 % 0.00 in
14:06 84.2 °F 63.5 °F 29.86 in NNE 0.2 mph 3.5 mph 50 % 0.00 in
14:11 83.9 °F 62.7 °F 29.86 in WNW 2.4 mph 5.0 mph 49 % 0.00 in
14:16 83.9 °F 63.3 °F 29.86 in WNW 2.8 mph 5.0 mph 50 % 0.00 in
14:21 84.1 °F 61.1 °F 29.86 in NW 0.5 mph 3.5 mph 46 % 0.00 in
14:26 84.3 °F 62.5 °F 29.86 in WNW 0.9 mph 2.3 mph 48 % 0.00 in
14:31 84.3 °F 61.3 °F 29.86 in West 0.6 mph 3.5 mph 46 % 0.00 in
14:36 84.2 °F 59.9 °F 29.86 in SSW 3.0 mph 5.8 mph 44 % 0.00 in
14:41 84.1 °F 59.2 °F 29.86 in WNW 2.7 mph 6.9 mph 43 % 0.00 in
14:46 84.1 °F 59.2 °F 29.86 in WNW 4.4 mph 5.8 mph 43 % 0.00 in
14:51 84.1 °F 59.2 °F 29.86 in WNW 2.9 mph 5.0 mph 43 % 0.00 in
14:56 84.2 °F 59.3 °F 29.86 in WNW 0.7 mph 3.5 mph 43 % 0.00 in
15:01 84.2 °F 57.9 °F 29.86 in NNW 0.6 mph 3.5 mph 41 % 0.00 in
15:06 84.2 °F 59.9 °F 29.86 in West 2.9 mph 4.0 mph 44 % 0.00 in
15:11 84.3 °F 60.0 °F 29.86 in WNW 2.4 mph 5.8 mph 44 % 0.00 in
15:16 84.2 °F 57.3 °F 29.86 in NNW 0.5 mph 4.6 mph 40 % 0.00 in
15:21 84.1 °F 55.7 °F 29.86 in West 4.3 mph 7.0 mph 38 % 0.00 in
15:26 84.1 °F 58.5 °F 29.86 in West 1.3 mph 9.2 mph 42 % 0.00 in
15:31 84.1 °F 58.5 °F 29.86 in West 5.2 mph 5.8 mph 42 % 0.00 in
15:37 84.1 °F 59.2 °F 29.86 in WNW 3.1 mph 5.0 mph 43 % 0.00 in
15:42 84.1 °F 59.2 °F 29.86 in West 3.1 mph 8.1 mph 43 % 0.00 in
15:47 84.2 °F 59.3 °F 29.86 in North 1.2 mph 3.5 mph 43 % 0.00 in
15:52 84.2 °F 60.6 °F 29.86 in WNW 2.3 mph 3.5 mph 45 % 0.00 in
15:57 83.9 °F 57.0 °F 29.86 in West 2.6 mph 9.2 mph 40 % 0.00 in
16:02 83.6 °F 57.4 °F 29.86 in West 2.1 mph 5.8 mph 41 % 0.00 in
16:07 83.5 °F 57.3 °F 29.86 in WNW 3.6 mph 5.8 mph 41 % 0.00 in
16:12 83.3 °F 56.5 °F 29.86 in WNW 2.4 mph 8.1 mph 40 % 0.00 in
16:17 83.2 °F 59.0 °F 29.86 in WNW 4.1 mph 5.8 mph 44 % 0.00 in
16:22 83.1 °F 57.0 °F 29.87 in WNW 1.9 mph 6.9 mph 41 % 0.00 in
16:27 82.9 °F 58.7 °F 29.86 in NW 0.8 mph 3.5 mph 44 % 0.00 in
16:32 82.9 °F 59.4 °F 29.87 in WNW 1.8 mph 3.5 mph 45 % 0.00 in
16:37 82.8 °F 58.7 °F 29.87 in WNW 2.0 mph 8.1 mph 44 % 0.00 in
16:42 82.6 °F 57.8 °F 29.86 in NNW 2.1 mph 5.8 mph 43 % 0.00 in
16:43 82.5 °F 58.4 °F 29.86 in WNW 2.8 mph 4.6 mph 44 % 0.00 in
16:48 82.2 °F 56.8 °F 29.86 in WNW 2.9 mph 6.0 mph 42 % 0.00 in
16:53 82.0 °F 56.6 °F 29.86 in West 0.9 mph 4.6 mph 42 % 0.00 in
16:58 81.9 °F 57.2 °F 29.86 in WNW 1.2 mph 4.6 mph 43 % 0.00 in
17:03 81.8 °F 55.8 °F 29.86 in WNW 3.8 mph 5.8 mph 41 % 0.00 in
17:08 81.6 °F 56.9 °F 29.86 in NNW 1.0 mph 3.5 mph 43 % 0.00 in
17:13 81.2 °F 56.6 °F 29.86 in NW 1.4 mph 5.8 mph 43 % 0.00 in
17:18 81.0 °F 57.0 °F 29.86 in WNW 1.3 mph 3.5 mph 44 % 0.00 in
17:23 80.8 °F 58.1 °F 29.87 in West 2.2 mph 3.5 mph 46 % 0.00 in
17:28 80.6 °F 55.4 °F 29.87 in NW 1.2 mph 6.9 mph 42 % 0.00 in
17:33 80.5 °F 56.6 °F 29.87 in NW 3.1 mph 5.8 mph 44 % 0.00 in
17:38 80.3 °F 57.0 °F 29.87 in WNW 0.6 mph 3.5 mph 45 % 0.00 in
17:44 80.0 °F 58.0 °F 29.87 in NNW 2.1 mph 2.3 mph 47 % 0.00 in
17:49 79.7 °F 57.1 °F 29.87 in WNW 0.7 mph 4.6 mph 46 % 0.00 in
17:54 79.5 °F 58.1 °F 29.87 in NW 3.1 mph 4.0 mph 48 % 0.00 in
17:59 79.3 °F 56.7 °F 29.87 in West 1.8 mph 5.0 mph 46 % 0.00 in
18:04 79.0 °F 56.5 °F 29.86 in WNW 0.4 mph 3.5 mph 46 % 0.00 in
18:09 78.7 °F 56.8 °F 29.87 in WNW 1.3 mph 3.5 mph 47 % 0.00 in
18:14 78.4 °F 56.5 °F 29.86 in North 1.3 mph 4.6 mph 47 % 0.00 in
18:19 78.0 °F 57.9 °F 29.86 in NNE 2.2 mph 3.5 mph 50 % 0.00 in
18:24 77.7 °F 59.2 °F 29.87 in North 3.0 mph 3.5 mph 53 % 0.00 in
18:29 77.3 °F 59.4 °F 29.87 in WNW 0.7 mph 3.5 mph 54 % 0.00 in
18:30 77.3 °F 59.4 °F 29.87 in NNE 1.1 mph 3.5 mph 54 % 0.00 in
18:35 76.9 °F 58.5 °F 29.87 in NNE 1.0 mph 4.6 mph 53 % 0.00 in
18:40 76.6 °F 58.2 °F 29.87 in North 2.4 mph 4.6 mph 53 % 0.00 in
18:45 76.3 °F 57.4 °F 29.87 in NNE 2.7 mph 6.9 mph 52 % 0.00 in
18:50 76.1 °F 58.2 °F 29.87 in West 0.8 mph 3.5 mph 54 % 0.00 in
18:55 75.8 °F 57.4 °F 29.87 in North 1.8 mph 4.6 mph 53 % 0.00 in
19:00 75.6 °F 57.8 °F 29.87 in North 1.5 mph 4.6 mph 54 % 0.00 in
19:05 75.4 °F 58.1 °F 29.87 in NNW 0.7 mph 2.3 mph 55 % 0.00 in
19:10 75.2 °F 57.4 °F 29.87 in North 1.8 mph 5.8 mph 54 % 0.00 in
19:15 75.0 °F 57.2 °F 29.87 in Calm   2.0 mph 54 % 0.00 in
19:20 74.8 °F 57.5 °F 29.87 in NNE 0.4 mph 2.3 mph 55 % 0.00 in
19:25 74.6 °F 57.9 °F 29.87 in North 0.5 mph 2.3 mph 56 % 0.00 in
19:30 74.2 °F 57.5 °F 29.87 in NNE 3.1 mph 6.9 mph 56 % 0.00 in
19:35 73.9 °F 57.2 °F 29.88 in NNE 0.1 mph 1.2 mph 56 % 0.00 in
19:40 73.7 °F 58.0 °F 29.88 in NNE 1.2 mph 2.3 mph 58 % 0.00 in
19:45 73.6 °F 57.9 °F 29.88 in NNE 1.3 mph 3.5 mph 58 % 0.00 in
19:50 73.5 °F 57.8 °F 29.88 in WNW 0.2 mph 1.2 mph 58 % 0.00 in
19:55 73.4 °F 58.2 °F 29.88 in NNE 1.1 mph 3.5 mph 59 % 0.00 in
20:00 73.2 °F 58.0 °F 29.88 in Calm     59 % 0.00 in
20:05 73.1 °F 57.9 °F 29.88 in North 0.5 mph 3.5 mph 59 % 0.00 in
20:10 72.9 °F 58.2 °F 29.89 in NNE 0.7 mph 2.3 mph 60 % 0.00 in
20:15 72.7 °F 58.0 °F 29.89 in NNE 1.2 mph 2.3 mph 60 % 0.00 in
20:20 72.6 °F 57.9 °F 29.89 in Calm     60 % 0.00 in
20:25 72.4 °F 58.2 °F 29.89 in NNE 0.1 mph 1.2 mph 61 % 0.00 in
20:30 72.3 °F 58.5 °F 29.89 in NNE 1.9 mph 2.3 mph 62 % 0.00 in
20:35 72.1 °F 58.8 °F 29.90 in NNE 2.0 mph 3.5 mph 63 % 0.00 in
20:41 72.0 °F 58.7 °F 29.90 in NNE 1.0 mph 6.0 mph 63 % 0.00 in
20:46 71.8 °F 58.5 °F 29.90 in Calm   1.2 mph 63 % 0.00 in
20:51 71.7 °F 58.9 °F 29.90 in Calm   2.3 mph 64 % 0.00 in
20:56 71.6 °F 59.6 °F 29.90 in Calm     66 % 0.00 in
21:01 71.4 °F 59.9 °F 29.90 in Calm     67 % 0.00 in
21:06 71.3 °F 59.8 °F 29.90 in Calm     67 % 0.00 in
21:11 71.0 °F 59.9 °F 29.91 in Calm   1.0 mph 68 % 0.00 in
21:16 70.7 °F 59.6 °F 29.91 in Calm     68 % 0.00 in
21:21 70.4 °F 59.3 °F 29.91 in Calm     68 % 0.00 in
21:26 70.1 °F 59.5 °F 29.91 in Calm     69 % 0.00 in
21:31 69.8 °F 59.2 °F 29.91 in Calm     69 % 0.00 in
21:36 69.4 °F 59.2 °F 29.91 in Calm     70 % 0.00 in
21:41 69.1 °F 58.9 °F 29.90 in Calm     70 % 0.00 in
21:46 68.8 °F 59.0 °F 29.91 in Calm     71 % 0.00 in
21:51 68.5 °F 59.1 °F 29.90 in Calm     72 % 0.00 in
21:56 68.2 °F 59.2 °F 29.90 in Calm   1.0 mph 73 % 0.00 in
22:01 67.9 °F 59.3 °F 29.90 in Calm     74 % 0.00 in
22:06 67.6 °F 59.0 °F 29.90 in North 0.2 mph 1.0 mph 74 % 0.00 in
22:11 67.3 °F 59.1 °F 29.90 in Calm   1.0 mph 75 % 0.00 in
22:16 67.0 °F 59.2 °F 29.90 in North 0.1 mph 1.2 mph 76 % 0.00 in
22:21 66.7 °F 58.9 °F 29.90 in Calm     76 % 0.00 in
22:26 66.5 °F 59.1 °F 29.90 in Calm     77 % 0.00 in
22:31 66.2 °F 59.1 °F 29.90 in Calm     78 % 0.00 in
22:36 66.0 °F 58.9 °F 29.90 in NNW 0.8 mph 1.2 mph 78 % 0.00 in
22:41 65.8 °F 59.1 °F 29.90 in NNW 1.3 mph 2.3 mph 79 % 0.00 in
22:46 65.6 °F 58.9 °F 29.90 in Calm   1.2 mph 79 % 0.00 in
22:51 65.4 °F 59.1 °F 29.90 in NNW 0.1 mph   80 % 0.00 in
22:56 65.3 °F 59.0 °F 29.91 in NNW 0.8 mph 2.3 mph 80 % 0.00 in
23:01 65.1 °F 59.1 °F 29.90 in NNW 0.8 mph 2.3 mph 81 % 0.00 in
23:06 65.0 °F 59.4 °F 29.90 in NNW 0.1 mph 1.2 mph 82 % 0.00 in
23:11 64.8 °F 59.2 °F 29.91 in NNW 0.2 mph 1.2 mph 82 % 0.00 in
23:16 64.7 °F 59.4 °F 29.91 in NNW 0.1 mph 2.3 mph 83 % 0.00 in
23:21 64.6 °F 59.7 °F 29.91 in NE 2.9 mph 4.0 mph 84 % 0.00 in
23:26 64.6 °F 59.3 °F 29.91 in North 4.7 mph 9.2 mph 83 % 0.00 in
23:31 64.9 °F 59.3 °F 29.91 in NNE 3.7 mph 10.0 mph 82 % 0.00 in
23:36 65.2 °F 59.2 °F 29.92 in North 2.9 mph 5.8 mph 81 % 0.00 in
23:41 65.6 °F 59.3 °F 29.92 in NNW 3.0 mph 8.1 mph 80 % 0.00 in
23:46 66.0 °F 58.9 °F 29.92 in North 3.8 mph 8.1 mph 78 % 0.00 in
23:51 66.3 °F 58.9 °F 29.92 in North 3.7 mph 4.0 mph 77 % 0.00 in
23:56 66.7 °F 59.3 °F 29.92 in North 3.5 mph 6.9 mph 77 % 0.00 in
Crab Meadow Weather
Compliments of Weather Underground - 3 mb

Script developed by  Jim McMurry - jmcmurry@mwt.net Adapted for the template by  Wim van der Kuil - Leuven-Template.eu

Hurricanes: A large hurricane stirs up more than a million cubic miles of the atmosphere every second. Hurricane winds can kick up 50 foot or higher waves in the open ocean.